Terminal Aerodrome Forecast
Issued by NWS

Home | Current Version | Previous Version | Text Only | Print | Product List | Glossary On
Versions: 1 2 3 4 5 6 7 8 9 10 11 12 13 14 15 16 17 18 19 20 21 22 23 24 25
000
FTUS41 KALY 282321
TAFPSF
TAF
KPSF 282321Z 2900/2924 33010G17KT P6SM VCSH BKN050 OVC070
      TEMPO 2900/2902 2SM -SHSN BR BKN009 OVC030
     FM290400 31008KT P6SM BKN040 OVC080
     FM291100 31006KT P6SM SCT045
     FM291400 29007KT P6SM FEW040
     FM292100 22005KT P6SM SKC=

USA.gov is the U.S. government's official web portal to all federal, state and local government web resources and services.